sensor_id;sensor_type;location;lat;lon;timestamp;P1;durP1;ratioP1;P2;durP2;ratioP2
13061;SDS011;6597;52.218;9.882;2023-02-28T00:01:38;2.60;;;2.00;;
13061;SDS011;6597;52.218;9.882;2023-02-28T00:04:04;1.97;;;1.77;;
13061;SDS011;6597;52.218;9.882;2023-02-28T00:06:31;4.37;;;2.47;;
13061;SDS011;6597;52.218;9.882;2023-02-28T00:08:57;4.17;;;2.00;;
13061;SDS011;6597;52.218;9.882;2023-02-28T00:11:24;6.63;;;2.07;;
13061;SDS011;6597;52.218;9.882;2023-02-28T00:13:52;7.37;;;2.23;;
13061;SDS011;6597;52.218;9.882;2023-02-28T00:16:19;5.90;;;2.30;;
13061;SDS011;6597;52.218;9.882;2023-02-28T00:18:47;3.03;;;2.07;;
13061;SDS011;6597;52.218;9.882;2023-02-28T00:21:14;5.57;;;2.07;;
13061;SDS011;6597;52.218;9.882;2023-02-28T00:23:41;2.67;;;1.60;;
13061;SDS011;6597;52.218;9.882;2023-02-28T00:26:08;9.60;;;2.73;;
13061;SDS011;6597;52.218;9.882;2023-02-28T00:28:36;3.50;;;2.20;;
13061;SDS011;6597;52.218;9.882;2023-02-28T00:31:04;3.23;;;1.90;;
13061;SDS011;6597;52.218;9.882;2023-02-28T00:33:30;2.83;;;2.20;;
13061;SDS011;6597;52.218;9.882;2023-02-28T00:36:01;2.33;;;2.03;;
13061;SDS011;6597;52.218;9.882;2023-02-28T00:38:34;3.80;;;2.07;;
13061;SDS011;6597;52.218;9.882;2023-02-28T00:41:01;4.43;;;2.30;;
13061;SDS011;6597;52.218;9.882;2023-02-28T00:43:30;4.13;;;2.17;;
13061;SDS011;6597;52.218;9.882;2023-02-28T00:45:57;2.30;;;2.10;;
13061;SDS011;6597;52.218;9.882;2023-02-28T00:48:25;2.37;;;2.07;;
13061;SDS011;6597;52.218;9.882;2023-02-28T00:50:52;4.87;;;2.40;;
13061;SDS011;6597;52.218;9.882;2023-02-28T00:53:19;3.53;;;2.43;;
13061;SDS011;6597;52.218;9.882;2023-02-28T00:55:45;2.03;;;1.83;;
13061;SDS011;6597;52.218;9.882;2023-02-28T00:58:12;2.63;;;1.90;;
13061;SDS011;6597;52.218;9.882;2023-02-28T01:00:38;3.90;;;2.33;;
13061;SDS011;6597;52.218;9.882;2023-02-28T01:03:05;7.23;;;2.70;;
13061;SDS011;6597;52.218;9.882;2023-02-28T01:05:33;7.67;;;2.33;;
13061;SDS011;6597;52.218;9.882;2023-02-28T01:07:59;2.10;;;1.87;;
13061;SDS011;6597;52.218;9.882;2023-02-28T01:10:27;4.17;;;1.80;;
13061;SDS011;6597;52.218;9.882;2023-02-28T01:12:56;3.10;;;2.43;;
13061;SDS011;6597;52.218;9.882;2023-02-28T01:15:23;6.07;;;2.53;;
13061;SDS011;6597;52.218;9.882;2023-02-28T01:17:49;5.10;;;2.47;;
13061;SDS011;6597;52.218;9.882;2023-02-28T01:20:16;3.73;;;2.70;;
13061;SDS011;6597;52.218;9.882;2023-02-28T01:22:44;3.33;;;2.47;;
13061;SDS011;6597;52.218;9.882;2023-02-28T01:25:11;2.93;;;1.90;;
13061;SDS011;6597;52.218;9.882;2023-02-28T01:27:38;4.37;;;2.67;;
13061;SDS011;6597;52.218;9.882;2023-02-28T01:30:05;2.97;;;2.27;;
13061;SDS011;6597;52.218;9.882;2023-02-28T01:32:33;3.93;;;2.47;;
13061;SDS011;6597;52.218;9.882;2023-02-28T01:34:59;3.33;;;1.80;;
13061;SDS011;6597;52.218;9.882;2023-02-28T01:37:26;4.23;;;2.90;;
13061;SDS011;6597;52.218;9.882;2023-02-28T01:39:54;3.40;;;2.30;;
13061;SDS011;6597;52.218;9.882;2023-02-28T01:42:21;3.87;;;2.23;;
13061;SDS011;6597;52.218;9.882;2023-02-28T01:44:55;3.70;;;2.40;;
13061;SDS011;6597;52.218;9.882;2023-02-28T01:47:25;6.63;;;2.30;;
13061;SDS011;6597;52.218;9.882;2023-02-28T01:49:55;3.43;;;2.77;;
13061;SDS011;6597;52.218;9.882;2023-02-28T01:52:23;3.50;;;2.27;;
13061;SDS011;6597;52.218;9.882;2023-02-28T01:54:54;4.30;;;2.37;;
13061;SDS011;6597;52.218;9.882;2023-02-28T01:57:27;3.00;;;2.60;;
13061;SDS011;6597;52.218;9.882;2023-02-28T02:00:03;12.93;;;3.03;;
13061;SDS011;6597;52.218;9.882;2023-02-28T02:02:45;6.30;;;3.27;;
13061;SDS011;6597;52.218;9.882;2023-02-28T02:05:15;4.53;;;2.90;;
13061;SDS011;6597;52.218;9.882;2023-02-28T02:07:44;5.03;;;2.90;;
13061;SDS011;6597;52.218;9.882;2023-02-28T02:10:15;4.37;;;2.80;;
13061;SDS011;6597;52.218;9.882;2023-02-28T02:15:32;9.90;;;3.40;;
13061;SDS011;6597;52.218;9.882;2023-02-28T02:18:04;3.97;;;3.50;;
13061;SDS011;6597;52.218;9.882;2023-02-28T02:23:51;7.20;;;3.10;;
13061;SDS011;6597;52.218;9.882;2023-02-28T02:29:37;6.67;;;3.17;;
13061;SDS011;6597;52.218;9.882;2023-02-28T02:32:16;3.67;;;2.93;;
13061;SDS011;6597;52.218;9.882;2023-02-28T02:35:06;4.47;;;3.23;;
13061;SDS011;6597;52.218;9.882;2023-02-28T02:37:40;6.90;;;3.07;;
13061;SDS011;6597;52.218;9.882;2023-02-28T02:40:14;5.90;;;3.60;;
13061;SDS011;6597;52.218;9.882;2023-02-28T02:42:46;5.50;;;3.20;;
13061;SDS011;6597;52.218;9.882;2023-02-28T02:45:18;6.87;;;3.33;;
13061;SDS011;6597;52.218;9.882;2023-02-28T02:47:49;4.50;;;2.80;;
13061;SDS011;6597;52.218;9.882;2023-02-28T02:50:19;6.43;;;3.03;;
13061;SDS011;6597;52.218;9.882;2023-02-28T02:52:50;5.57;;;3.50;;
13061;SDS011;6597;52.218;9.882;2023-02-28T02:55:21;6.67;;;3.90;;
13061;SDS011;6597;52.218;9.882;2023-02-28T02:57:49;4.23;;;3.17;;
13061;SDS011;6597;52.218;9.882;2023-02-28T03:00:20;7.20;;;3.30;;
13061;SDS011;6597;52.218;9.882;2023-02-28T03:02:51;6.60;;;3.33;;
13061;SDS011;6597;52.218;9.882;2023-02-28T03:05:23;6.53;;;3.07;;
13061;SDS011;6597;52.218;9.882;2023-02-28T03:07:52;5.03;;;3.17;;
13061;SDS011;6597;52.218;9.882;2023-02-28T03:10:29;7.80;;;3.60;;
13061;SDS011;6597;52.218;9.882;2023-02-28T03:16:13;7.60;;;3.00;;
13061;SDS011;6597;52.218;9.882;2023-02-28T03:18:52;5.17;;;2.57;;
13061;SDS011;6597;52.218;9.882;2023-02-28T03:21:27;5.43;;;3.07;;
13061;SDS011;6597;52.218;9.882;2023-02-28T03:24:02;8.87;;;3.77;;
13061;SDS011;6597;52.218;9.882;2023-02-28T03:26:30;4.20;;;3.00;;
13061;SDS011;6597;52.218;9.882;2023-02-28T03:29:02;5.57;;;3.23;;
13061;SDS011;6597;52.218;9.882;2023-02-28T03:31:32;6.70;;;2.93;;
13061;SDS011;6597;52.218;9.882;2023-02-28T03:34:04;4.50;;;2.73;;
13061;SDS011;6597;52.218;9.882;2023-02-28T03:36:36;9.07;;;3.13;;
13061;SDS011;6597;52.218;9.882;2023-02-28T03:39:09;4.47;;;2.33;;
13061;SDS011;6597;52.218;9.882;2023-02-28T03:41:41;6.00;;;2.80;;
13061;SDS011;6597;52.218;9.882;2023-02-28T03:44:10;5.50;;;2.90;;
13061;SDS011;6597;52.218;9.882;2023-02-28T03:46:42;3.87;;;2.30;;
13061;SDS011;6597;52.218;9.882;2023-02-28T03:49:15;6.17;;;2.93;;
13061;SDS011;6597;52.218;9.882;2023-02-28T03:51:46;4.17;;;2.63;;
13061;SDS011;6597;52.218;9.882;2023-02-28T03:54:16;5.53;;;3.10;;
13061;SDS011;6597;52.218;9.882;2023-02-28T03:56:47;14.47;;;3.40;;
13061;SDS011;6597;52.218;9.882;2023-02-28T03:59:18;7.80;;;3.10;;
13061;SDS011;6597;52.218;9.882;2023-02-28T04:01:48;4.23;;;2.67;;
13061;SDS011;6597;52.218;9.882;2023-02-28T04:04:17;3.77;;;2.73;;
13061;SDS011;6597;52.218;9.882;2023-02-28T04:06:45;5.30;;;2.97;;
13061;SDS011;6597;52.218;9.882;2023-02-28T04:09:16;3.33;;;2.40;;
13061;SDS011;6597;52.218;9.882;2023-02-28T04:11:43;5.37;;;3.00;;
13061;SDS011;6597;52.218;9.882;2023-02-28T04:14:12;5.37;;;2.80;;
13061;SDS011;6597;52.218;9.882;2023-02-28T04:16:39;7.87;;;3.00;;
13061;SDS011;6597;52.218;9.882;2023-02-28T04:19:09;8.30;;;2.90;;
13061;SDS011;6597;52.218;9.882;2023-02-28T04:21:38;5.53;;;2.57;;
13061;SDS011;6597;52.218;9.882;2023-02-28T04:24:07;3.93;;;2.73;;
13061;SDS011;6597;52.218;9.882;2023-02-28T04:26:39;2.93;;;1.97;;
13061;SDS011;6597;52.218;9.882;2023-02-28T04:29:08;3.93;;;2.10;;
13061;SDS011;6597;52.218;9.882;2023-02-28T04:31:36;9.27;;;2.17;;
13061;SDS011;6597;52.218;9.882;2023-02-28T04:34:02;4.17;;;2.40;;
13061;SDS011;6597;52.218;9.882;2023-02-28T04:36:29;5.10;;;2.40;;
13061;SDS011;6597;52.218;9.882;2023-02-28T04:38:56;3.97;;;2.77;;
13061;SDS011;6597;52.218;9.882;2023-02-28T04:41:24;3.70;;;2.40;;
13061;SDS011;6597;52.218;9.882;2023-02-28T04:43:51;3.93;;;2.57;;
13061;SDS011;6597;52.218;9.882;2023-02-28T04:46:18;5.90;;;2.90;;
13061;SDS011;6597;52.218;9.882;2023-02-28T04:48:45;3.20;;;2.20;;
13061;SDS011;6597;52.218;9.882;2023-02-28T04:51:12;12.77;;;2.83;;
13061;SDS011;6597;52.218;9.882;2023-02-28T04:53:41;6.00;;;3.03;;
13061;SDS011;6597;52.218;9.882;2023-02-28T04:56:09;5.57;;;3.20;;
13061;SDS011;6597;52.218;9.882;2023-02-28T04:58:40;5.43;;;3.10;;
13061;SDS011;6597;52.218;9.882;2023-02-28T05:01:07;7.10;;;3.00;;
13061;SDS011;6597;52.218;9.882;2023-02-28T05:03:46;4.27;;;3.07;;
13061;SDS011;6597;52.218;9.882;2023-02-28T05:06:13;4.67;;;2.83;;
13061;SDS011;6597;52.218;9.882;2023-02-28T05:08:40;5.17;;;3.33;;
13061;SDS011;6597;52.218;9.882;2023-02-28T05:11:15;5.40;;;2.90;;
13061;SDS011;6597;52.218;9.882;2023-02-28T05:13:45;4.83;;;3.27;;
13061;SDS011;6597;52.218;9.882;2023-02-28T05:16:13;4.03;;;2.73;;
13061;SDS011;6597;52.218;9.882;2023-02-28T05:18:40;3.37;;;3.03;;
13061;SDS011;6597;52.218;9.882;2023-02-28T05:21:13;4.43;;;3.03;;
13061;SDS011;6597;52.218;9.882;2023-02-28T05:23:50;5.27;;;3.10;;
13061;SDS011;6597;52.218;9.882;2023-02-28T05:26:16;4.23;;;2.73;;
13061;SDS011;6597;52.218;9.882;2023-02-28T05:28:43;4.00;;;2.87;;
13061;SDS011;6597;52.218;9.882;2023-02-28T05:31:11;6.23;;;3.07;;
13061;SDS011;6597;52.218;9.882;2023-02-28T05:33:38;5.07;;;2.37;;
13061;SDS011;6597;52.218;9.882;2023-02-28T05:36:05;3.03;;;2.53;;
13061;SDS011;6597;52.218;9.882;2023-02-28T05:38:32;3.57;;;2.53;;
13061;SDS011;6597;52.218;9.882;2023-02-28T05:40:59;3.73;;;2.67;;
13061;SDS011;6597;52.218;9.882;2023-02-28T05:43:26;4.17;;;2.43;;
13061;SDS011;6597;52.218;9.882;2023-02-28T05:45:52;3.70;;;2.60;;
13061;SDS011;6597;52.218;9.882;2023-02-28T05:48:20;4.33;;;2.90;;
13061;SDS011;6597;52.218;9.882;2023-02-28T05:50:47;3.77;;;2.53;;
13061;SDS011;6597;52.218;9.882;2023-02-28T05:53:13;3.80;;;2.77;;
13061;SDS011;6597;52.218;9.882;2023-02-28T05:55:40;4.83;;;3.23;;
13061;SDS011;6597;52.218;9.882;2023-02-28T05:58:07;5.00;;;3.23;;
13061;SDS011;6597;52.218;9.882;2023-02-28T06:00:33;5.90;;;3.07;;
13061;SDS011;6597;52.218;9.882;2023-02-28T06:03:01;9.87;;;3.20;;
13061;SDS011;6597;52.218;9.882;2023-02-28T06:05:29;4.13;;;2.93;;
13061;SDS011;6597;52.218;9.882;2023-02-28T06:07:55;7.40;;;3.03;;
13061;SDS011;6597;52.218;9.882;2023-02-28T06:10:22;5.33;;;3.50;;
13061;SDS011;6597;52.218;9.882;2023-02-28T06:12:48;5.23;;;3.50;;
13061;SDS011;6597;52.218;9.882;2023-02-28T06:15:15;6.37;;;3.23;;
13061;SDS011;6597;52.218;9.882;2023-02-28T06:17:42;5.40;;;3.13;;
13061;SDS011;6597;52.218;9.882;2023-02-28T06:20:09;6.00;;;4.00;;
13061;SDS011;6597;52.218;9.882;2023-02-28T06:22:39;8.47;;;3.13;;
13061;SDS011;6597;52.218;9.882;2023-02-28T06:25:06;4.57;;;3.57;;
13061;SDS011;6597;52.218;9.882;2023-02-28T06:27:33;5.83;;;3.10;;
13061;SDS011;6597;52.218;9.882;2023-02-28T06:30:00;5.50;;;3.23;;
13061;SDS011;6597;52.218;9.882;2023-02-28T06:32:26;7.97;;;3.30;;
13061;SDS011;6597;52.218;9.882;2023-02-28T06:34:53;7.40;;;4.00;;
13061;SDS011;6597;52.218;9.882;2023-02-28T06:37:20;8.57;;;4.00;;
13061;SDS011;6597;52.218;9.882;2023-02-28T06:39:47;3.50;;;2.87;;
13061;SDS011;6597;52.218;9.882;2023-02-28T06:42:14;6.50;;;3.90;;
13061;SDS011;6597;52.218;9.882;2023-02-28T06:44:41;5.40;;;3.10;;
13061;SDS011;6597;52.218;9.882;2023-02-28T06:47:08;4.97;;;3.40;;
13061;SDS011;6597;52.218;9.882;2023-02-28T06:49:35;10.67;;;4.30;;
13061;SDS011;6597;52.218;9.882;2023-02-28T06:52:02;8.57;;;3.70;;
13061;SDS011;6597;52.218;9.882;2023-02-28T06:54:29;6.10;;;3.40;;
13061;SDS011;6597;52.218;9.882;2023-02-28T06:56:58;6.07;;;3.83;;
13061;SDS011;6597;52.218;9.882;2023-02-28T06:59:24;6.77;;;3.70;;
13061;SDS011;6597;52.218;9.882;2023-02-28T07:01:51;5.57;;;3.37;;
13061;SDS011;6597;52.218;9.882;2023-02-28T07:04:18;4.90;;;3.60;;
13061;SDS011;6597;52.218;9.882;2023-02-28T07:06:44;5.57;;;3.40;;
13061;SDS011;6597;52.218;9.882;2023-02-28T07:09:11;4.97;;;3.80;;
13061;SDS011;6597;52.218;9.882;2023-02-28T07:11:38;9.30;;;3.67;;
13061;SDS011;6597;52.218;9.882;2023-02-28T07:14:07;9.57;;;3.87;;
13061;SDS011;6597;52.218;9.882;2023-02-28T07:16:33;6.57;;;4.13;;
13061;SDS011;6597;52.218;9.882;2023-02-28T07:19:01;8.77;;;4.53;;
13061;SDS011;6597;52.218;9.882;2023-02-28T07:21:27;5.27;;;3.80;;
13061;SDS011;6597;52.218;9.882;2023-02-28T07:23:55;5.50;;;3.70;;
13061;SDS011;6597;52.218;9.882;2023-02-28T07:26:22;12.50;;;5.53;;
13061;SDS011;6597;52.218;9.882;2023-02-28T07:28:49;7.80;;;5.17;;
13061;SDS011;6597;52.218;9.882;2023-02-28T07:31:17;9.80;;;5.40;;
13061;SDS011;6597;52.218;9.882;2023-02-28T07:33:44;10.87;;;5.40;;
13061;SDS011;6597;52.218;9.882;2023-02-28T07:36:11;8.43;;;5.40;;
13061;SDS011;6597;52.218;9.882;2023-02-28T07:38:40;13.43;;;5.60;;
13061;SDS011;6597;52.218;9.882;2023-02-28T07:41:07;10.63;;;4.90;;
13061;SDS011;6597;52.218;9.882;2023-02-28T07:43:34;10.87;;;5.00;;
13061;SDS011;6597;52.218;9.882;2023-02-28T07:46:01;11.70;;;6.77;;
13061;SDS011;6597;52.218;9.882;2023-02-28T07:48:31;9.00;;;5.47;;
13061;SDS011;6597;52.218;9.882;2023-02-28T07:50:58;5.90;;;3.73;;
13061;SDS011;6597;52.218;9.882;2023-02-28T07:53:25;9.97;;;3.53;;
13061;SDS011;6597;52.218;9.882;2023-02-28T07:55:54;4.70;;;3.17;;
13061;SDS011;6597;52.218;9.882;2023-02-28T07:58:21;5.67;;;3.13;;
13061;SDS011;6597;52.218;9.882;2023-02-28T08:00:48;9.50;;;3.53;;
13061;SDS011;6597;52.218;9.882;2023-02-28T08:03:15;9.10;;;3.60;;
13061;SDS011;6597;52.218;9.882;2023-02-28T08:05:43;6.33;;;4.13;;
13061;SDS011;6597;52.218;9.882;2023-02-28T08:08:10;6.50;;;3.77;;
13061;SDS011;6597;52.218;9.882;2023-02-28T08:10:36;4.33;;;3.33;;
13061;SDS011;6597;52.218;9.882;2023-02-28T08:13:03;6.10;;;3.50;;
13061;SDS011;6597;52.218;9.882;2023-02-28T08:15:30;5.27;;;3.23;;
13061;SDS011;6597;52.218;9.882;2023-02-28T08:17:56;5.50;;;3.27;;
13061;SDS011;6597;52.218;9.882;2023-02-28T08:20:23;7.63;;;3.90;;
13061;SDS011;6597;52.218;9.882;2023-02-28T08:22:52;5.43;;;3.40;;
13061;SDS011;6597;52.218;9.882;2023-02-28T08:25:18;6.77;;;3.53;;
13061;SDS011;6597;52.218;9.882;2023-02-28T08:27:46;6.30;;;3.33;;
13061;SDS011;6597;52.218;9.882;2023-02-28T08:30:12;6.57;;;3.27;;
13061;SDS011;6597;52.218;9.882;2023-02-28T08:32:40;6.20;;;3.57;;
13061;SDS011;6597;52.218;9.882;2023-02-28T08:35:07;5.93;;;3.60;;
13061;SDS011;6597;52.218;9.882;2023-02-28T08:37:35;6.50;;;3.10;;
13061;SDS011;6597;52.218;9.882;2023-02-28T08:40:03;5.80;;;3.40;;
13061;SDS011;6597;52.218;9.882;2023-02-28T08:42:31;6.90;;;3.07;;
13061;SDS011;6597;52.218;9.882;2023-02-28T08:44:58;5.10;;;3.13;;
13061;SDS011;6597;52.218;9.882;2023-02-28T08:47:24;4.00;;;2.93;;
13061;SDS011;6597;52.218;9.882;2023-02-28T08:49:51;3.23;;;2.60;;
13061;SDS011;6597;52.218;9.882;2023-02-28T08:52:18;3.17;;;2.60;;
13061;SDS011;6597;52.218;9.882;2023-02-28T08:54:44;4.33;;;2.40;;
13061;SDS011;6597;52.218;9.882;2023-02-28T08:57:12;2.43;;;2.10;;
13061;SDS011;6597;52.218;9.882;2023-02-28T08:59:39;2.67;;;2.17;;
13061;SDS011;6597;52.218;9.882;2023-02-28T09:02:05;4.03;;;2.40;;
13061;SDS011;6597;52.218;9.882;2023-02-28T09:04:33;3.67;;;2.30;;
13061;SDS011;6597;52.218;9.882;2023-02-28T09:06:59;3.73;;;1.90;;
13061;SDS011;6597;52.218;9.882;2023-02-28T09:09:26;8.33;;;2.30;;
13061;SDS011;6597;52.218;9.882;2023-02-28T09:11:52;2.50;;;1.73;;
13061;SDS011;6597;52.218;9.882;2023-02-28T09:14:22;2.10;;;1.90;;
13061;SDS011;6597;52.218;9.882;2023-02-28T09:16:49;3.13;;;2.10;;
13061;SDS011;6597;52.218;9.882;2023-02-28T09:19:16;2.23;;;1.77;;
13061;SDS011;6597;52.218;9.882;2023-02-28T09:21:42;5.50;;;1.80;;
13061;SDS011;6597;52.218;9.882;2023-02-28T09:24:09;2.90;;;1.67;;
13061;SDS011;6597;52.218;9.882;2023-02-28T09:26:39;1.97;;;1.60;;
13061;SDS011;6597;52.218;9.882;2023-02-28T09:29:06;5.00;;;1.90;;
13061;SDS011;6597;52.218;9.882;2023-02-28T09:31:34;2.27;;;1.50;;
13061;SDS011;6597;52.218;9.882;2023-02-28T09:34:00;3.00;;;1.60;;
13061;SDS011;6597;52.218;9.882;2023-02-28T09:36:27;2.47;;;1.53;;
13061;SDS011;6597;52.218;9.882;2023-02-28T09:38:55;2.27;;;1.60;;
13061;SDS011;6597;52.218;9.882;2023-02-28T09:41:22;5.17;;;1.60;;
13061;SDS011;6597;52.218;9.882;2023-02-28T09:43:53;3.90;;;1.93;;
13061;SDS011;6597;52.218;9.882;2023-02-28T09:46:26;2.07;;;1.70;;
13061;SDS011;6597;52.218;9.882;2023-02-28T09:48:57;6.23;;;2.30;;
13061;SDS011;6597;52.218;9.882;2023-02-28T09:51:32;1.90;;;1.50;;
13061;SDS011;6597;52.218;9.882;2023-02-28T09:54:04;2.30;;;1.30;;
13061;SDS011;6597;52.218;9.882;2023-02-28T09:56:32;4.33;;;1.57;;
13061;SDS011;6597;52.218;9.882;2023-02-28T09:59:04;3.07;;;1.80;;
13061;SDS011;6597;52.218;9.882;2023-02-28T10:01:39;3.00;;;1.77;;
13061;SDS011;6597;52.218;9.882;2023-02-28T10:04:16;1.43;;;1.33;;
13061;SDS011;6597;52.218;9.882;2023-02-28T10:07:00;2.73;;;1.87;;
13061;SDS011;6597;52.218;9.882;2023-02-28T10:09:42;2.43;;;1.70;;
13061;SDS011;6597;52.218;9.882;2023-02-28T10:12:13;2.90;;;1.40;;
13061;SDS011;6597;52.218;9.882;2023-02-28T10:14:43;2.50;;;1.60;;
13061;SDS011;6597;52.218;9.882;2023-02-28T10:17:14;2.50;;;1.90;;
13061;SDS011;6597;52.218;9.882;2023-02-28T10:19:49;2.53;;;1.73;;
13061;SDS011;6597;52.218;9.882;2023-02-28T10:22:26;2.87;;;1.60;;
13061;SDS011;6597;52.218;9.882;2023-02-28T10:24:56;3.57;;;1.67;;
13061;SDS011;6597;52.218;9.882;2023-02-28T10:27:29;3.47;;;1.83;;
13061;SDS011;6597;52.218;9.882;2023-02-28T10:29:58;6.50;;;2.20;;
13061;SDS011;6597;52.218;9.882;2023-02-28T10:32:26;3.57;;;1.90;;
13061;SDS011;6597;52.218;9.882;2023-02-28T10:34:59;4.80;;;1.73;;
13061;SDS011;6597;52.218;9.882;2023-02-28T10:37:27;4.30;;;1.87;;
13061;SDS011;6597;52.218;9.882;2023-02-28T10:39:54;3.90;;;1.97;;
13061;SDS011;6597;52.218;9.882;2023-02-28T10:42:22;2.27;;;1.63;;
13061;SDS011;6597;52.218;9.882;2023-02-28T10:45:09;3.40;;;1.90;;
13061;SDS011;6597;52.218;9.882;2023-02-28T10:47:40;2.77;;;1.73;;
13061;SDS011;6597;52.218;9.882;2023-02-28T10:50:32;2.70;;;1.70;;
13061;SDS011;6597;52.218;9.882;2023-02-28T10:55:59;4.03;;;1.80;;
13061;SDS011;6597;52.218;9.882;2023-02-28T10:58:27;2.80;;;2.00;;
13061;SDS011;6597;52.218;9.882;2023-02-28T11:00:56;6.57;;;1.97;;
13061;SDS011;6597;52.218;9.882;2023-02-28T11:03:24;2.30;;;1.97;;
13061;SDS011;6597;52.218;9.882;2023-02-28T11:05:57;3.07;;;1.80;;
13061;SDS011;6597;52.218;9.882;2023-02-28T11:08:24;4.03;;;2.37;;
13061;SDS011;6597;52.218;9.882;2023-02-28T11:10:54;3.67;;;1.63;;
13061;SDS011;6597;52.218;9.882;2023-02-28T11:13:24;2.30;;;1.77;;
13061;SDS011;6597;52.218;9.882;2023-02-28T11:15:55;2.77;;;1.90;;
13061;SDS011;6597;52.218;9.882;2023-02-28T11:18:26;2.70;;;1.37;;
13061;SDS011;6597;52.218;9.882;2023-02-28T11:20:57;2.13;;;1.60;;
13061;SDS011;6597;52.218;9.882;2023-02-28T11:23:28;2.10;;;1.50;;
13061;SDS011;6597;52.218;9.882;2023-02-28T11:25:59;2.03;;;1.53;;
13061;SDS011;6597;52.218;9.882;2023-02-28T11:28:29;1.60;;;1.50;;
13061;SDS011;6597;52.218;9.882;2023-02-28T11:31:05;3.23;;;1.50;;
13061;SDS011;6597;52.218;9.882;2023-02-28T11:33:42;1.97;;;1.50;;
13061;SDS011;6597;52.218;9.882;2023-02-28T11:36:13;3.77;;;1.33;;
13061;SDS011;6597;52.218;9.882;2023-02-28T11:38:42;2.70;;;1.80;;
13061;SDS011;6597;52.218;9.882;2023-02-28T11:41:13;2.60;;;1.60;;
13061;SDS011;6597;52.218;9.882;2023-02-28T11:44:07;2.23;;;1.30;;
13061;SDS011;6597;52.218;9.882;2023-02-28T11:46:48;1.67;;;1.40;;
13061;SDS011;6597;52.218;9.882;2023-02-28T11:49:22;10.13;;;2.03;;
13061;SDS011;6597;52.218;9.882;2023-02-28T11:51:59;3.00;;;1.80;;
13061;SDS011;6597;52.218;9.882;2023-02-28T11:54:35;2.23;;;1.47;;
13061;SDS011;6597;52.218;9.882;2023-02-28T11:57:28;3.73;;;1.70;;
13061;SDS011;6597;52.218;9.882;2023-02-28T12:00:06;1.40;;;1.30;;
13061;SDS011;6597;52.218;9.882;2023-02-28T12:02:50;2.40;;;1.30;;
13061;SDS011;6597;52.218;9.882;2023-02-28T12:05:30;2.07;;;1.20;;
13061;SDS011;6597;52.218;9.882;2023-02-28T12:08:11;3.43;;;1.40;;
13061;SDS011;6597;52.218;9.882;2023-02-28T12:10:52;1.97;;;1.27;;
13061;SDS011;6597;52.218;9.882;2023-02-28T12:13:32;2.60;;;1.23;;
13061;SDS011;6597;52.218;9.882;2023-02-28T12:16:13;2.93;;;1.47;;
13061;SDS011;6597;52.218;9.882;2023-02-28T12:21:46;2.07;;;0.93;;
13061;SDS011;6597;52.218;9.882;2023-02-28T12:24:42;1.60;;;1.03;;
13061;SDS011;6597;52.218;9.882;2023-02-28T12:27:21;5.80;;;1.33;;
13061;SDS011;6597;52.218;9.882;2023-02-28T12:29:51;2.87;;;1.27;;
13061;SDS011;6597;52.218;9.882;2023-02-28T12:32:23;1.13;;;0.97;;
13061;SDS011;6597;52.218;9.882;2023-02-28T12:34:55;4.30;;;1.23;;
13061;SDS011;6597;52.218;9.882;2023-02-28T12:37:28;1.73;;;1.23;;
13061;SDS011;6597;52.218;9.882;2023-02-28T12:40:01;2.37;;;1.17;;
13061;SDS011;6597;52.218;9.882;2023-02-28T12:42:36;1.90;;;1.37;;
13061;SDS011;6597;52.218;9.882;2023-02-28T12:45:08;3.90;;;1.70;;
13061;SDS011;6597;52.218;9.882;2023-02-28T12:47:39;2.50;;;1.27;;
13061;SDS011;6597;52.218;9.882;2023-02-28T12:50:09;2.97;;;1.40;;
13061;SDS011;6597;52.218;9.882;2023-02-28T12:52:39;2.13;;;1.30;;
13061;SDS011;6597;52.218;9.882;2023-02-28T12:55:14;3.10;;;1.30;;
13061;SDS011;6597;52.218;9.882;2023-02-28T12:57:50;1.67;;;1.17;;
13061;SDS011;6597;52.218;9.882;2023-02-28T13:00:23;2.67;;;1.40;;
13061;SDS011;6597;52.218;9.882;2023-02-28T13:06:05;2.17;;;1.30;;
13061;SDS011;6597;52.218;9.882;2023-02-28T13:11:32;2.63;;;1.23;;
13061;SDS011;6597;52.218;9.882;2023-02-28T13:14:04;1.53;;;1.20;;
13061;SDS011;6597;52.218;9.882;2023-02-28T13:16:47;1.67;;;1.20;;
13061;SDS011;6597;52.218;9.882;2023-02-28T13:19:17;1.23;;;1.13;;
13061;SDS011;6597;52.218;9.882;2023-02-28T13:21:46;4.23;;;0.90;;
13061;SDS011;6597;52.218;9.882;2023-02-28T13:27:22;1.57;;;1.30;;
13061;SDS011;6597;52.218;9.882;2023-02-28T13:29:51;2.07;;;1.47;;
13061;SDS011;6597;52.218;9.882;2023-02-28T13:32:32;2.97;;;1.33;;
13061;SDS011;6597;52.218;9.882;2023-02-28T13:44:14;1.50;;;1.30;;
13061;SDS011;6597;52.218;9.882;2023-02-28T13:49:50;1.33;;;1.17;;
13061;SDS011;6597;52.218;9.882;2023-02-28T13:52:18;1.70;;;1.10;;
13061;SDS011;6597;52.218;9.882;2023-02-28T13:55:00;3.47;;;1.60;;
13061;SDS011;6597;52.218;9.882;2023-02-28T13:57:45;2.00;;;1.40;;
13061;SDS011;6597;52.218;9.882;2023-02-28T14:00:31;2.83;;;1.40;;
13061;SDS011;6597;52.218;9.882;2023-02-28T14:03:11;12.17;;;1.73;;
13061;SDS011;6597;52.218;9.882;2023-02-28T14:08:36;3.40;;;1.67;;
13061;SDS011;6597;52.218;9.882;2023-02-28T14:11:03;2.87;;;1.60;;
13061;SDS011;6597;52.218;9.882;2023-02-28T14:13:39;4.73;;;1.80;;
13061;SDS011;6597;52.218;9.882;2023-02-28T14:16:11;1.80;;;1.50;;
13061;SDS011;6597;52.218;9.882;2023-02-28T14:18:41;4.33;;;2.20;;
13061;SDS011;6597;52.218;9.882;2023-02-28T14:21:16;2.93;;;1.93;;
13061;SDS011;6597;52.218;9.882;2023-02-28T14:27:00;1.40;;;1.30;;
13061;SDS011;6597;52.218;9.882;2023-02-28T14:29:52;2.90;;;1.77;;
13061;SDS011;6597;52.218;9.882;2023-02-28T14:32:35;2.37;;;1.60;;
13061;SDS011;6597;52.218;9.882;2023-02-28T14:35:13;5.93;;;1.47;;
13061;SDS011;6597;52.218;9.882;2023-02-28T14:37:46;2.00;;;1.37;;
13061;SDS011;6597;52.218;9.882;2023-02-28T14:40:14;3.10;;;1.80;;
13061;SDS011;6597;52.218;9.882;2023-02-28T14:42:46;2.73;;;1.33;;
13061;SDS011;6597;52.218;9.882;2023-02-28T14:45:17;3.73;;;1.23;;
13061;SDS011;6597;52.218;9.882;2023-02-28T14:47:46;3.43;;;2.33;;
13061;SDS011;6597;52.218;9.882;2023-02-28T14:50:18;2.03;;;1.60;;
13061;SDS011;6597;52.218;9.882;2023-02-28T14:52:47;1.90;;;1.50;;
13061;SDS011;6597;52.218;9.882;2023-02-28T14:55:16;5.20;;;1.57;;
13061;SDS011;6597;52.218;9.882;2023-02-28T14:57:50;2.20;;;1.47;;
13061;SDS011;6597;52.218;9.882;2023-02-28T15:00:21;2.67;;;1.43;;
13061;SDS011;6597;52.218;9.882;2023-02-28T15:02:50;2.07;;;1.47;;
13061;SDS011;6597;52.218;9.882;2023-02-28T15:05:27;2.07;;;1.57;;
13061;SDS011;6597;52.218;9.882;2023-02-28T15:08:11;2.07;;;1.50;;
13061;SDS011;6597;52.218;9.882;2023-02-28T15:10:39;4.40;;;1.60;;
13061;SDS011;6597;52.218;9.882;2023-02-28T15:13:11;1.47;;;1.20;;
13061;SDS011;6597;52.218;9.882;2023-02-28T15:15:41;1.43;;;1.33;;
13061;SDS011;6597;52.218;9.882;2023-02-28T15:18:14;4.00;;;2.13;;
13061;SDS011;6597;52.218;9.882;2023-02-28T15:20:49;2.07;;;1.70;;
13061;SDS011;6597;52.218;9.882;2023-02-28T15:23:17;1.90;;;1.40;;
13061;SDS011;6597;52.218;9.882;2023-02-28T15:25:45;2.93;;;1.63;;
13061;SDS011;6597;52.218;9.882;2023-02-28T15:28:16;3.07;;;1.60;;
13061;SDS011;6597;52.218;9.882;2023-02-28T15:30:50;2.33;;;1.53;;
13061;SDS011;6597;52.218;9.882;2023-02-28T15:33:21;3.97;;;1.87;;
13061;SDS011;6597;52.218;9.882;2023-02-28T15:35:50;4.30;;;2.10;;
13061;SDS011;6597;52.218;9.882;2023-02-28T15:38:18;2.90;;;2.10;;
13061;SDS011;6597;52.218;9.882;2023-02-28T15:40:50;2.40;;;1.77;;
13061;SDS011;6597;52.218;9.882;2023-02-28T15:43:23;2.27;;;1.80;;
13061;SDS011;6597;52.218;9.882;2023-02-28T15:45:52;3.27;;;1.83;;
13061;SDS011;6597;52.218;9.882;2023-02-28T15:48:25;2.67;;;1.80;;
13061;SDS011;6597;52.218;9.882;2023-02-28T15:50:55;2.90;;;2.10;;
13061;SDS011;6597;52.218;9.882;2023-02-28T15:53:24;3.97;;;1.70;;
13061;SDS011;6597;52.218;9.882;2023-02-28T15:55:55;1.83;;;1.43;;
13061;SDS011;6597;52.218;9.882;2023-02-28T15:58:25;2.53;;;1.83;;
13061;SDS011;6597;52.218;9.882;2023-02-28T16:01:00;1.87;;;1.70;;
13061;SDS011;6597;52.218;9.882;2023-02-28T16:03:40;3.40;;;1.70;;
13061;SDS011;6597;52.218;9.882;2023-02-28T16:06:24;4.50;;;2.10;;